Time;durP1;ratioP1;P1;durP2;ratioP2;P2;SDS_P1;SDS_P2;PMS_P1;PMS_P2;Temp;Humidity;BMP_temperature;BMP_pressure;BME280_temperature;BME280_humidity;BME280_pressure;Samples;Min_cycle;Max_cycle;Signal;HPM_P1;HPM_P2
2023/03/27 00:05:34;;;;;;;29.17;19.85;;;;;;;6.91;91.60;100202.47;4938459;29;20119;-93
2023/03/27 00:14:55;;;;;;;41.90;23.58;;;;;;;6.57;91.21;100162.13;4939345;29;20168;-95
2023/03/27 00:20:52;;;;;;;37.20;21.88;;;;;;;6.88;90.66;100202.78;4942285;29;20149;-92
2023/03/27 00:26:55;;;;;;;23.17;14.05;;;;;;;6.70;90.36;100197.38;4925145;29;20047;-93
2023/03/27 00:36:49;;;;;;;13.23;7.10;;;;;;;6.65;86.64;100190.75;4957559;28;20051;-94
2023/03/27 00:39:54;;;;;;;14.35;7.70;;;;;;;6.58;86.81;100192.34;4942142;29;20040;-93
2023/03/27 01:03:15;;;;;;;10.80;4.50;;;;;;;6.36;85.37;100167.69;4941715;29;20048;-94
2023/03/27 01:13:33;;;;;;;8.43;5.18;;;;;;;6.18;85.40;100111.56;4943260;29;20125;-96
2023/03/27 01:16:57;;;;;;;10.15;5.88;;;;;;;6.37;85.92;100140.00;4869176;29;20061;-95
2023/03/27 01:20:26;;;;;;;7.82;4.50;;;;;;;6.40;85.23;100130.88;4938258;28;20154;-95
2023/03/27 01:23:51;;;;;;;10.25;4.90;;;;;;;6.33;85.15;100135.94;4951146;28;20040;-95
2023/03/27 01:27:00;;;;;;;;;;;;;;;6.24;85.20;100126.97;4927216;29;20090;-95
2023/03/27 01:30:04;;;;;;;8.88;5.18;;;;;;;6.22;85.52;100138.78;4852138;29;20016;-96
2023/03/27 01:36:48;;;;;;;11.52;7.65;;;;;;;6.22;86.12;100136.97;4911863;29;20157;-94
2023/03/27 01:43:24;;;;;;;20.85;9.80;;;;;;;6.16;86.86;100128.69;4920971;29;20043;-93
2023/03/27 01:46:19;;;;;;;19.63;10.15;;;;;;;5.86;87.14;100088.72;4904624;29;20070;-95
2023/03/27 01:53:20;;;;;;;18.60;10.88;;;;;;;6.09;87.29;100117.78;4939176;29;20074;-96
2023/03/27 01:56:36;;;;;;;34.15;16.60;;;;;;;6.10;87.17;100117.59;4926738;29;20056;-94
2023/03/27 01:59:25;;;;;;;32.72;18.30;;;;;;;5.99;87.53;100100.94;4919491;29;20422;-95
2023/03/27 02:02:04;;;;;;;34.13;18.38;;;;;;;5.59;89.23;100057.47;4929199;29;20485;-95
2023/03/27 02:05:19;;;;;;;31.42;16.83;;;;;;;5.93;88.96;100107.66;4910071;29;20040;-96
2023/03/27 02:08:28;;;;;;;19.55;12.45;;;;;;;5.98;87.83;100084.09;5048762;23;20126;-94
2023/03/27 02:11:57;;;;;;;16.88;9.40;;;;;;;6.06;86.92;100086.88;4927913;28;20539;-96
2023/03/27 02:16:55;;;;;;;22.88;12.55;;;;;;;5.87;86.91;100070.88;4929962;29;20522;-93
2023/03/27 02:22:50;;;;;;;15.98;9.30;;;;;;;5.90;85.83;100075.94;4928263;29;20087;-94
2023/03/27 02:25:43;;;;;;;19.40;9.25;;;;;;;5.99;86.26;100092.94;4905343;29;20044;-93
2023/03/27 02:28:28;;;;;;;18.08;10.30;;;;;;;5.95;85.97;100088.84;4886401;29;20134;-95
2023/03/27 02:31:42;;;;;;;19.63;11.60;;;;;;;6.02;86.20;100085.47;4936581;29;20079;-94
2023/03/27 02:37:57;;;;;;;20.40;11.50;;;;;;;5.89;87.04;100060.91;4901593;29;20078;-95
2023/03/27 02:44:54;;;;;;;23.25;12.05;;;;;;;6.03;86.92;100068.47;5139708;23;20051;-95
2023/03/27 02:48:19;;;;;;;20.90;11.23;;;;;;;6.00;87.09;100063.44;4959527;28;20066;-95
2023/03/27 02:51:06;;;;;;;18.52;11.82;;;;;;;5.77;87.47;100027.41;4942714;28;20051;-95
2023/03/27 02:53:39;;;;;;;22.13;10.30;;;;;;;5.92;86.99;100042.78;4920517;29;20054;-94
2023/03/27 02:57:03;;;;;;;16.50;10.45;;;;;;;5.95;86.92;100057.69;4915972;29;20051;-95
2023/03/27 03:00:31;;;;;;;22.35;13.52;;;;;;;5.60;87.62;100005.84;4959571;29;20433;-94
2023/03/27 03:03:52;;;;;;;24.10;13.88;;;;;;;5.70;87.33;99995.97;4953790;29;20047;-95
2023/03/27 03:07:08;;;;;;;23.55;12.70;;;;;;;5.84;87.80;100034.66;4974075;28;20054;-96
2023/03/27 03:09:53;;;;;;;26.70;13.05;;;;;;;5.84;88.13;100042.66;4949163;28;20095;-95
2023/03/27 03:12:20;;;;;;;;;;;;;;;5.82;88.18;100046.47;4934138;29;20043;-93
2023/03/27 03:15:23;;;;;;;24.67;12.23;;;;;;;5.73;88.58;100048.16;4939846;29;19922;-95
2023/03/27 03:18:37;;;;;;;21.45;12.27;;;;;;;5.49;90.01;100030.81;4965033;28;20051;-95
2023/03/27 03:21:16;;;;;;;22.20;11.88;;;;;;;5.46;91.18;100028.47;4931803;29;20093;-96
2023/03/27 03:32:08;;;;;;;22.00;11.63;;;;;;;5.45;97.36;100050.75;5262412;23;20280;-93
2023/03/27 03:34:55;;;;;;;24.55;11.50;;;;;;;5.44;97.03;100002.94;4926636;29;20500;-95
2023/03/27 03:41:11;;;;;;;85.45;9.80;;;;;;;5.56;99.35;100038.25;4940412;29;20079;-96
2023/03/27 03:43:51;;;;;;;19.88;9.95;;;;;;;5.49;99.60;100032.66;4927000;29;20047;-95
2023/03/27 03:46:49;;;;;;;47.60;8.85;;;;;;;5.80;100.00;100061.78;4931011;29;20098;-95
2023/03/27 03:49:19;;;;;;;78.57;8.45;;;;;;;5.63;100.00;100042.03;4939854;29;20031;-95
2023/03/27 03:51:52;;;;;;;204.20;7.68;;;;;;;5.80;100.00;100056.44;4935427;29;20103;-94
2023/03/27 03:54:30;;;;;;;51.63;6.47;;;;;;;5.80;100.00;100064.44;4912207;29;20040;-94
2023/03/27 03:57:20;;;;;;;165.70;6.50;;;;;;;5.82;100.00;100065.16;4930809;29;20044;-96
2023/03/27 04:00:12;;;;;;;54.38;5.63;;;;;;;5.80;100.00;100051.94;4936360;29;20114;-95
2023/03/27 04:03:00;;;;;;;61.60;5.82;;;;;;;5.91;100.00;100062.44;4932122;29;20039;-95
2023/03/27 04:05:37;;;;;;;94.35;5.20;;;;;;;6.09;100.00;100061.72;4939963;29;20052;-95
2023/03/27 04:08:44;;;;;;;68.35;5.35;;;;;;;5.93;100.00;100038.28;4943757;29;20051;-94
2023/03/27 04:11:38;;;;;;;157.00;5.70;;;;;;;6.12;100.00;100062.25;4935195;29;20046;-95
2023/03/27 07:10:06;;;;;;;9.52;4.90;;;;;;;17.45;51.10;99872.66;6137056;23;20033;31
2023/03/27 07:12:32;;;;;;;7.68;4.82;;;;;;;17.56;49.77;99876.53;4877613;29;20503;-92
2023/03/27 07:15:05;;;;;;;7.40;4.55;;;;;;;17.55;49.43;99855.81;4856631;29;20057;-93
2023/03/27 07:20:16;;;;;;;7.00;4.57;;;;;;;18.18;46.39;99843.78;5096592;23;20055;-94
2023/03/27 07:22:42;;;;;;;6.57;4.20;;;;;;;18.65;45.37;99833.00;4943218;28;20124;-90
2023/03/27 07:25:13;;;;;;;;;;;;;;;18.89;45.05;99860.31;4974183;28;20164;-91
2023/03/27 07:28:20;;;;;;;6.55;4.18;;;;;;;18.70;45.11;99857.63;4938753;29;20375;-94
2023/03/27 07:30:49;;;;;;;5.78;4.55;;;;;;;19.00;44.63;99839.59;4993669;28;20146;-91
2023/03/27 07:33:35;;;;;;;5.13;3.83;;;;;;;19.05;44.10;99835.09;4976572;28;20026;-96
2023/03/27 07:36:05;;;;;;;8.15;4.20;;;;;;;18.79;44.95;99854.63;4969280;28;20039;-93
2023/03/27 07:38:35;;;;;;;7.35;4.38;;;;;;;18.61;45.35;99841.88;4954738;28;20046;-93
2023/03/27 07:41:06;;;;;;;6.65;4.70;;;;;;;17.97;46.85;99858.69;4958504;28;20066;-93
2023/03/27 07:43:35;;;;;;;6.93;4.40;;;;;;;17.52;47.36;99846.25;4951896;28;20129;-86
2023/03/27 07:46:07;;;;;;;6.82;4.93;;;;;;;16.67;49.98;99808.00;4944172;28;20416;-95
2023/03/27 07:51:57;;;;;;;6.32;4.53;;;;;;;18.21;48.09;99846.03;4976722;28;20542;-88
2023/03/27 07:54:30;;;;;;;7.65;4.88;;;;;;;18.88;46.83;99847.78;4965265;28;20111;-91
2023/03/27 07:57:00;;;;;;;5.72;4.22;;;;;;;19.06;46.08;99844.09;4962399;28;20113;-91
2023/03/27 07:59:29;;;;;;;7.47;4.40;;;;;;;19.10;45.86;99835.22;4962642;28;20034;-89
2023/03/27 08:02:30;;;;;;;6.18;4.78;;;;;;;19.38;45.65;99814.56;4935598;28;20061;-92
2023/03/27 08:05:08;;;;;;;6.60;4.80;;;;;;;20.45;43.47;99802.22;4939474;29;20063;-94
2023/03/27 08:07:38;;;;;;;6.65;4.50;;;;;;;21.17;43.19;99804.22;4968605;28;20042;-91
2023/03/27 08:10:51;;;;;;;12.63;5.03;;;;;;;22.47;39.11;99794.53;4958374;29;20134;-91
2023/03/27 08:13:19;;;;;;;6.30;5.00;;;;;;;22.32;38.57;99798.78;5053625;23;20048;-91
2023/03/27 08:15:48;;;;;;;7.13;5.10;;;;;;;22.64;38.31;99778.81;4883163;29;20049;-92
2023/03/27 08:18:14;;;;;;;10.65;5.40;;;;;;;22.45;38.30;99786.59;4898919;29;20080;-89
2023/03/27 08:20:41;;;;;;;6.63;5.05;;;;;;;22.24;38.28;99776.53;4897215;29;20037;-91
2023/03/27 08:23:08;;;;;;;9.35;5.57;;;;;;;21.54;39.48;99748.97;4883035;29;20529;-90
2023/03/27 08:25:49;;;;;;;8.70;5.60;;;;;;;22.38;38.85;99785.13;4873374;29;20052;-93
2023/03/27 08:28:16;;;;;;;8.23;5.10;;;;;;;21.36;40.83;99751.97;4899425;29;20107;-91
2023/03/27 08:30:47;;;;;;;7.40;5.78;;;;;;;22.53;38.67;99769.66;4881119;29;20451;-94
2023/03/27 08:33:15;;;;;;;9.85;5.50;;;;;;;21.75;39.34;99757.38;4909134;29;20048;-92
2023/03/27 08:35:49;;;;;;;7.90;5.75;;;;;;;21.59;39.71;99754.47;4896259;29;20051;-89
2023/03/27 08:38:15;;;;;;;7.35;5.70;;;;;;;21.62;39.57;99734.00;4899450;29;20040;-87
2023/03/27 08:40:52;;;;;;;9.93;6.32;;;;;;;22.50;38.90;99744.72;4895641;29;20064;-89
2023/03/27 08:43:42;;;;;;;6.60;5.60;;;;;;;22.97;37.30;99725.59;4882879;29;20051;-91
2023/03/27 09:03:58;;;;;;;7.55;6.05;;;;;;;25.34;33.50;99711.03;5752011;23;20059;-93
2023/03/27 09:06:52;;;;;;;11.55;6.65;;;;;;;24.34;35.49;99711.75;4937855;29;20083;-90
2023/03/27 09:10:05;;;;;;;8.85;6.55;;;;;;;23.41;37.31;99721.69;4920854;29;20503;-91
2023/03/27 09:12:52;;;;;;;9.02;7.13;;;;;;;21.61;40.66;99716.78;4919753;29;20054;-93
2023/03/27 09:15:24;;;;;;;9.55;7.50;;;;;;;20.76;42.75;99699.78;4929156;29;20058;-92
2023/03/27 09:18:36;;;;;;;12.85;8.48;;;;;;;19.60;45.99;99714.72;4902459;29;20027;-91
2023/03/27 09:21:10;;;;;;;13.13;9.10;;;;;;;18.99;47.66;99708.03;5005639;23;20175;-88
2023/03/27 09:26:59;;;;;;;14.43;10.52;;;;;;;17.98;50.59;99690.91;4968606;23;20149;-89
2023/03/27 09:33:51;;;;;;;12.13;9.88;;;;;;;18.80;48.71;99684.72;4981994;28;20102;-89
2023/03/27 09:36:17;;;;;;;15.13;10.60;;;;;;;17.55;51.38;99675.63;4950437;29;20058;-90
2023/03/27 10:14:49;;;;;;;15.90;12.85;;;;;;;25.45;33.16;99582.47;5790985;23;20295;-89
2023/03/27 10:17:42;;;;;;;16.08;13.23;;;;;;;28.30;29.39;99593.03;4932433;29;20070;-90
2023/03/27 10:20:14;;;;;;;14.93;12.07;;;;;;;28.23;28.10;99561.41;4937214;28;20044;-89
2023/03/27 10:22:43;;;;;;;16.70;13.60;;;;;;;28.50;28.48;99552.38;4956270;28;20058;-90
2023/03/27 10:25:18;;;;;;;67.25;18.40;;;;;;;27.39;29.88;99560.31;4916319;29;20522;-89
2023/03/27 10:27:46;;;;;;;56.90;17.20;;;;;;;26.55;30.92;99552.63;4899236;29;20047;-91
2023/03/27 10:30:27;;;;;;;25.48;13.15;;;;;;;25.31;32.67;99564.97;4931194;29;20385;-91
2023/03/27 10:32:53;;;;;;;16.70;11.80;;;;;;;22.11;37.45;99576.03;4950562;29;20043;-90
2023/03/27 10:35:25;;;;;;;16.50;13.18;;;;;;;20.61;41.07;99571.25;4917616;29;20500;-90
2023/03/27 10:37:52;;;;;;;16.98;12.18;;;;;;;20.26;42.06;99563.38;4933614;29;20506;-91
2023/03/27 10:40:25;;;;;;;16.38;13.02;;;;;;;20.58;42.23;99555.34;4934142;29;20066;-93
2023/03/27 10:42:56;;;;;;;16.77;12.68;;;;;;;20.96;41.60;99548.19;4916936;29;20079;-87
2023/03/27 10:45:21;;;;;;;15.23;12.10;;;;;;;22.25;38.74;99523.59;4926620;29;20428;-93
2023/03/27 10:47:50;;;;;;;18.67;13.23;;;;;;;23.11;37.95;99523.13;4935591;29;20095;-89
2023/03/27 10:51:07;;;;;;;23.77;14.40;;;;;;;22.29;38.71;99492.69;4916392;29;20047;-96
2023/03/27 10:53:47;;;;;;;19.45;13.98;;;;;;;23.33;37.46;99503.66;4877473;29;20037;-91
2023/03/27 10:56:27;;;;;;;19.63;14.18;;;;;;;23.32;37.21;99482.84;4933095;29;20217;-91
2023/03/27 10:59:16;;;;;;;18.95;14.00;;;;;;;24.54;35.02;99488.41;4933770;29;20504;-91
2023/03/27 11:01:51;;;;;;;17.75;13.68;;;;;;;24.35;35.44;99490.91;4913609;29;20062;-90
2023/03/27 11:04:39;;;;;;;18.73;14.23;;;;;;;23.80;36.40;99482.53;4914013;29;20039;-89
2023/03/27 11:07:05;;;;;;;21.15;14.85;;;;;;;22.95;38.47;99456.44;4932832;29;20031;-89
2023/03/27 11:10:13;;;;;;;22.65;14.85;;;;;;;22.06;39.45;99447.38;4930257;29;20054;-87
2023/03/27 11:12:39;;;;;;;19.27;14.23;;;;;;;20.43;43.38;99466.69;4934178;28;20051;-84
2023/03/27 11:15:24;;;;;;;22.17;14.18;;;;;;;19.91;44.40;99439.03;4934617;28;20137;-88
2023/03/27 11:17:58;;;;;;;22.77;15.23;;;;;;;19.24;46.21;99453.50;4952342;29;20392;-88
2023/03/27 11:20:32;;;;;;;19.90;14.38;;;;;;;18.87;47.17;99421.28;4902914;29;20036;-90
2023/03/27 11:23:07;;;;;;;22.20;14.50;;;;;;;19.10;46.68;99455.72;4937103;29;20070;-88
2023/03/27 11:25:45;;;;;;;;;;;;;;;18.60;48.52;99459.97;4918431;29;20051;-90
2023/03/27 11:28:23;;;;;;;31.00;16.92;;;;;;;18.43;48.81;99434.63;4952709;29;19950;-90
2023/03/27 11:31:01;;;;;;;25.23;14.23;;;;;;;18.92;47.22;99427.66;4945506;29;20091;-88
2023/03/27 11:34:06;;;;;;;37.40;17.05;;;;;;;18.62;48.06;99435.25;4919809;29;20047;-87
2023/03/27 11:36:50;;;;;;;18.45;13.13;;;;;;;17.61;50.12;99417.38;4941906;29;20044;-87
2023/03/27 11:39:21;;;;;;;25.02;14.57;;;;;;;17.64;50.48;99446.78;4931001;29;20493;-86
2023/03/27 11:41:58;;;;;;;26.52;15.20;;;;;;;16.71;52.84;99399.38;4936067;29;20038;-88
2023/03/27 11:44:29;;;;;;;27.40;15.25;;;;;;;16.80;52.94;99422.47;4930836;29;20043;-87
2023/03/27 11:47:14;;;;;;;22.27;13.35;;;;;;;16.58;53.05;99378.72;4957249;29;20039;-89
2023/03/27 11:49:53;;;;;;;18.80;12.45;;;;;;;16.79;52.76;99418.09;4949102;29;20071;-86
2023/03/27 11:52:49;;;;;;;19.90;12.65;;;;;;;16.06;54.17;99394.66;4938353;29;20054;-88
2023/03/27 11:55:42;;;;;;;19.77;11.85;;;;;;;15.42;55.85;99402.19;4948098;29;20070;-86
2023/03/27 11:58:33;;;;;;;19.48;11.52;;;;;;;15.08;56.71;99376.50;4897091;29;20681;-88
2023/03/27 12:01:27;;;;;;;21.15;13.30;;;;;;;15.20;57.70;99399.91;4945074;29;20156;-88
2023/03/27 12:03:56;;;;;;;24.13;11.98;;;;;;;14.95;58.22;99396.38;4916425;29;20047;-85
2023/03/27 12:07:07;;;;;;;23.15;12.15;;;;;;;14.58;59.80;99401.59;4953067;29;20043;-85
2023/03/27 12:09:38;;;;;;;20.95;12.45;;;;;;;14.58;59.87;99382.69;4937971;29;20059;-86
2023/03/27 12:12:22;;;;;;;22.42;12.15;;;;;;;14.32;61.33;99389.03;4943400;29;20038;-85
2023/03/27 12:15:23;;;;;;;25.75;13.30;;;;;;;14.47;60.60;99391.44;4928167;29;20111;-87
2023/03/27 12:18:02;;;;;;;18.40;11.70;;;;;;;14.54;60.58;99387.72;4865430;29;20045;-86
2023/03/27 12:20:52;;;;;;;20.02;11.13;;;;;;;14.92;59.36;99381.41;4932720;29;20373;-90
2023/03/27 12:23:43;;;;;;;21.88;11.15;;;;;;;15.66;57.37;99376.09;4957088;29;20047;-90
2023/03/27 12:27:26;;;;;;;19.05;10.60;;;;;;;16.03;54.60;99330.88;4955730;29;20396;-92
2023/03/27 12:30:22;;;;;;;23.40;9.90;;;;;;;16.39;54.09;99364.38;4945632;29;20175;-95
2023/03/27 12:33:00;;;;;;;14.88;9.10;;;;;;;15.81;55.21;99343.25;4933673;29;20076;-92
2023/03/27 12:35:56;;;;;;;17.17;10.00;;;;;;;15.29;56.30;99331.91;4957180;29;20058;-92
2023/03/27 12:38:48;;;;;;;15.55;9.75;;;;;;;15.49;55.44;99291.09;4948772;29;20492;-91
2023/03/27 12:41:32;;;;;;;17.15;9.73;;;;;;;15.18;57.37;99317.25;4932604;29;20172;-90
2023/03/27 12:47:33;;;;;;;16.35;9.75;;;;;;;14.86;57.67;99267.81;4948353;28;20059;-94
2023/03/27 12:53:37;;;;;;;16.40;9.68;;;;;;;14.88;58.30;99315.22;4955647;29;20048;-90
2023/03/27 12:56:47;;;;;;;15.43;8.45;;;;;;;14.85;56.99;99277.00;4953881;29;20063;-92
2023/03/27 12:59:43;;;;;;;16.73;8.65;;;;;;;14.69;58.09;99305.41;4902870;29;20035;-89
2023/03/27 13:02:18;;;;;;;;;;;;;;;14.48;58.86;99318.22;4915579;29;20047;-89
2023/03/27 13:11:22;;;;;;;18.63;7.65;;;;;;;14.31;59.50;99328.75;5163794;23;20207;-88
2023/03/27 13:17:10;;;;;;;15.02;7.30;;;;;;;14.49;58.69;99329.88;4951894;28;20123;-93
2023/03/27 13:20:36;;;;;;;11.80;6.20;;;;;;;14.23;58.40;99329.00;5377761;23;20119;-93
2023/03/27 13:32:47;;;;;;;15.43;6.20;;;;;;;13.49;60.44;99300.69;5022122;23;20063;-93
2023/03/27 13:35:53;;;;;;;12.38;6.05;;;;;;;13.67;59.91;99308.06;4957252;28;20146;-92
2023/03/27 13:38:53;;;;;;;13.60;5.70;;;;;;;13.86;59.04;99300.91;4954882;29;20039;-92
2023/03/27 13:42:07;;;;;;;9.63;5.60;;;;;;;13.96;58.52;99263.47;4955001;29;20039;-92
2023/03/27 13:45:05;;;;;;;12.20;6.05;;;;;;;14.26;57.37;99241.25;4940770;29;20046;-91
2023/03/27 13:47:52;;;;;;;13.40;5.50;;;;;;;14.65;56.31;99266.31;4951382;29;20039;-94
2023/03/27 13:54:02;;;;;;;18.60;5.88;;;;;;;14.74;56.06;99265.00;4961438;29;20161;-94
2023/03/27 13:57:22;;;;;;;14.75;5.65;;;;;;;14.78;55.31;99218.34;4955846;28;20482;-92
2023/03/27 14:01:06;;;;;;;10.40;5.55;;;;;;;15.36;54.58;99246.88;4976758;23;20067;-94
2023/03/27 14:04:38;;;;;;;10.55;5.20;;;;;;;15.19;54.67;99218.72;4870461;29;20066;-92
2023/03/27 14:07:45;;;;;;;11.88;4.93;;;;;;;15.03;54.91;99224.75;4952732;29;20115;-93
2023/03/27 14:10:32;;;;;;;9.65;5.07;;;;;;;14.70;56.04;99217.78;4952750;29;20059;-92
2023/03/27 14:13:39;;;;;;;13.45;5.25;;;;;;;14.49;56.97;99206.31;4935609;29;20051;-92
2023/03/27 14:16:39;;;;;;;17.77;6.63;;;;;;;14.56;57.23;99199.00;4926402;29;20062;-94
2023/03/27 14:19:43;;;;;;;15.57;5.60;;;;;;;14.59;56.76;99195.03;4958341;29;20047;-93
2023/03/27 14:22:52;;;;;;;15.07;6.28;;;;;;;14.07;58.18;99168.22;4952700;28;20054;-91
2023/03/27 14:25:29;;;;;;;14.25;5.38;;;;;;;14.27;57.89;99189.66;4926779;29;20055;-91
2023/03/27 14:28:37;;;;;;;14.70;5.20;;;;;;;14.17;57.91;99151.50;4965315;28;20046;-92
2023/03/27 14:31:10;;;;;;;15.38;5.20;;;;;;;14.12;57.97;99154.84;4929246;29;20047;-92
2023/03/27 14:34:14;;;;;;;11.20;5.50;;;;;;;13.61;59.33;99115.34;4922487;29;20051;-93
2023/03/27 14:37:43;;;;;;;19.00;5.43;;;;;;;13.52;60.28;99136.38;4941735;29;20039;-89
2023/03/27 14:40:54;;;;;;;11.32;5.28;;;;;;;13.69;60.67;99165.56;4844245;29;20118;-90
2023/03/27 14:43:45;;;;;;;10.60;5.30;;;;;;;13.48;61.04;99139.72;4818241;29;20519;-94
2023/03/27 14:46:28;;;;;;;12.85;5.38;;;;;;;13.35;61.53;99142.50;4790154;29;20131;-92
2023/03/27 14:48:58;;;;;;;10.23;5.65;;;;;;;13.27;61.75;99114.72;4806203;29;20053;-91
2023/03/27 14:51:38;;;;;;;17.83;5.60;;;;;;;13.44;61.90;99142.03;4794366;29;20042;-92
2023/03/27 14:54:29;;;;;;;10.70;5.38;;;;;;;13.62;60.92;99116.16;4811790;29;20114;-92
2023/03/27 14:57:07;;;;;;;14.70;6.07;;;;;;;14.09;60.41;99122.88;4821404;29;20046;-91
2023/03/27 15:00:06;;;;;;;14.82;5.18;;;;;;;13.77;60.27;99091.56;4900854;29;20047;-92
2023/03/27 15:02:54;;;;;;;;;;;;;;;;;;;;;
2023/03/27 15:05:21;;;;;;;13.18;5.82;;;;;;;13.24;62.61;99077.34;4945418;29;20052;-90
2023/03/27 15:07:48;;;;;;;15.90;5.82;;;;;;;13.23;63.24;99113.47;4904422;29;20103;-90
2023/03/27 15:10:22;;;;;;;13.05;5.65;;;;;;;13.03;63.95;99096.56;4933803;29;20039;-92
2023/03/27 15:12:57;;;;;;;13.25;5.68;;;;;;;13.23;63.08;99074.88;4956061;29;20135;-91
2023/03/27 15:15:43;;;;;;;13.52;5.57;;;;;;;13.22;63.38;99090.22;4954559;29;20132;-91
2023/03/27 15:18:23;;;;;;;11.10;5.88;;;;;;;12.98;64.46;99080.19;4959107;29;20058;-93
2023/03/27 15:20:53;;;;;;;18.02;6.45;;;;;;;12.60;64.92;99022.47;4951726;29;20045;-91
2023/03/27 15:23:59;;;;;;;14.05;5.93;;;;;;;12.73;65.90;99078.19;4944742;29;20046;-93
2023/03/27 15:27:15;;;;;;;12.95;6.03;;;;;;;12.60;66.32;99035.97;4959760;29;20534;-89
2023/03/27 15:30:22;;;;;;;12.35;5.75;;;;;;;12.64;66.13;99037.19;4953669;29;20071;-89
2023/03/27 15:32:54;;;;;;;15.70;6.63;;;;;;;12.79;66.43;99073.84;4920688;29;20048;-88
2023/03/27 15:35:36;;;;;;;18.10;6.72;;;;;;;12.29;67.92;99052.88;4963121;29;20035;-87
2023/03/27 15:38:06;;;;;;;16.33;6.55;;;;;;;12.06;68.81;99030.91;4948905;29;20115;-90
2023/03/27 15:40:50;;;;;;;16.45;7.15;;;;;;;12.01;69.87;99070.09;4949299;29;20043;-84
2023/03/27 15:43:25;;;;;;;18.70;6.78;;;;;;;11.72;70.93;99038.19;4949611;29;20043;-86
2023/03/27 15:46:13;;;;;;;17.98;7.50;;;;;;;11.60;71.36;99025.34;4946477;29;20070;-86
2023/03/27 15:48:56;;;;;;;18.25;8.25;;;;;;;11.44;72.12;99023.06;4957448;29;20149;-90
2023/03/27 15:51:29;;;;;;;18.48;7.90;;;;;;;11.71;71.95;99044.63;4947249;29;20049;-89
2023/03/27 15:53:59;;;;;;;16.70;7.07;;;;;;;11.66;72.43;99036.31;4948796;29;20099;-90
2023/03/27 15:56:46;;;;;;;16.10;7.70;;;;;;;11.57;72.72;99038.41;4959703;23;20099;-89
2023/03/27 15:59:24;;;;;;;21.33;7.85;;;;;;;11.55;73.02;99033.22;5036600;23;20102;-91
2023/03/27 16:04:50;;;;;;;14.82;7.32;;;;;;;11.27;73.98;99009.19;4984447;23;20043;-92
2023/03/27 16:07:33;;;;;;;;;;;;;;;;;;;;;
2023/03/27 16:10:04;;;;;;;16.88;7.60;;;;;;;11.01;75.26;99001.94;4966541;28;20042;-88
2023/03/27 16:13:09;;;;;;;;;;;;;;;;;;;;;
2023/03/27 16:16:14;;;;;;;18.00;7.65;;;;;;;10.98;76.11;99015.78;4984318;28;20058;-90
2023/03/27 16:19:23;;;;;;;22.73;7.60;;;;;;;10.91;76.01;99007.72;4955398;28;20062;-91
2023/03/27 16:22:20;;;;;;;16.42;7.03;;;;;;;10.78;76.62;99000.41;4975524;28;20046;-87
2023/03/27 16:25:35;;;;;;;15.77;7.43;;;;;;;11.02;76.85;99035.84;4989391;28;20035;-91
2023/03/27 16:33:43;;;;;;;16.25;7.30;;;;;;;10.80;78.26;99020.91;4970308;28;20105;-89
2023/03/27 16:36:14;;;;;;;18.27;7.30;;;;;;;10.67;78.79;99030.56;4930059;29;20063;-91
2023/03/27 16:39:05;;;;;;;18.95;8.10;;;;;;;10.61;79.58;98999.13;4899794;29;20139;-91
2023/03/27 16:41:51;;;;;;;20.10;8.38;;;;;;;10.69;79.59;99020.44;4888661;29;20032;-89
2023/03/27 16:44:52;;;;;;;19.33;8.73;;;;;;;10.82;79.87;99025.06;4922175;29;20044;-89
2023/03/27 16:47:32;;;;;;;19.50;8.50;;;;;;;10.57;79.85;98979.06;4903701;29;20040;-90
2023/03/27 16:59:06;;;;;;;;;;;;;;;;;;;;;
2023/03/27 17:01:35;;;;;;;18.98;8.57;;;;;;;10.80;80.20;99031.66;4935208;29;20085;-86
2023/03/27 17:04:12;;;;;;;18.45;8.30;;;;;;;10.64;80.40;99012.16;4937664;29;20036;-88
2023/03/27 17:06:40;;;;;;;19.20;9.00;;;;;;;10.86;80.23;99041.59;4922545;29;20142;-88
2023/03/27 17:09:06;;;;;;;22.88;8.93;;;;;;;10.87;80.21;99040.56;4936875;29;20528;-87
2023/03/27 17:11:39;;;;;;;14.73;8.00;;;;;;;10.62;80.44;98990.03;4932729;29;20043;-86
2023/03/27 17:14:11;;;;;;;26.52;9.40;;;;;;;10.67;79.63;98990.25;4900130;29;20039;-88
2023/03/27 17:16:38;;;;;;;19.67;9.13;;;;;;;10.74;80.00;99014.47;4923844;29;20062;-87
2023/03/27 17:19:04;;;;;;;18.20;8.45;;;;;;;10.77;80.02;99012.22;4929053;29;20570;-87
2023/03/27 17:21:36;;;;;;;21.17;8.93;;;;;;;10.84;80.64;99043.66;4927320;29;20122;-86
2023/03/27 17:24:05;;;;;;;20.65;9.15;;;;;;;10.74;80.11;99007.22;4932823;29;20077;-87
2023/03/27 17:26:38;;;;;;;24.15;9.90;;;;;;;10.74;79.69;98991.09;4917216;29;20036;-87
2023/03/27 17:29:11;;;;;;;19.00;9.30;;;;;;;10.78;79.62;98991.53;4922416;29;20058;-88
2023/03/27 17:31:41;;;;;;;21.60;8.50;;;;;;;10.95;79.47;99013.50;4897355;29;20050;-87
2023/03/27 17:34:30;;;;;;;23.75;9.30;;;;;;;10.93;79.46;99010.16;4922193;29;20051;-87
2023/03/27 17:36:58;;;;;;;20.42;9.27;;;;;;;10.97;79.04;98989.91;4945078;29;20507;-88
2023/03/27 17:39:26;;;;;;;21.48;9.65;;;;;;;11.07;79.04;99033.38;4927501;29;20055;-87
2023/03/27 17:42:02;;;;;;;19.83;8.88;;;;;;;10.89;79.25;98995.50;4936439;29;20035;-86
2023/03/27 17:44:30;;;;;;;17.65;9.00;;;;;;;11.11;79.01;99023.03;4942884;29;20387;-86
2023/03/27 17:46:59;;;;;;;19.95;8.90;;;;;;;10.92;79.57;98987.00;4923929;29;20076;-85
2023/03/27 17:49:34;;;;;;;16.60;9.20;;;;;;;11.16;79.01;99005.25;4927225;29;20055;-87
2023/03/27 17:52:06;;;;;;;15.65;8.63;;;;;;;10.88;79.02;98958.88;4928856;29;20088;-86
2023/03/27 17:54:45;;;;;;;20.05;9.65;;;;;;;10.85;79.36;98970.03;4941262;29;20153;-86
2023/03/27 17:57:15;;;;;;;22.80;9.25;;;;;;;11.18;79.21;99011.25;4902050;29;20074;-87
2023/03/27 18:02:32;;;;;;;21.50;9.52;;;;;;;10.85;79.31;98992.38;4945254;28;20061;-87
2023/03/27 18:04:57;;;;;;;19.25;9.48;;;;;;;10.85;79.54;98994.25;4921178;29;20039;-87
2023/03/27 18:07:23;;;;;;;21.08;8.88;;;;;;;10.90;79.63;99018.66;4956001;29;20046;-87
2023/03/27 18:09:51;;;;;;;17.10;8.30;;;;;;;11.05;77.96;99029.22;4934479;29;20063;-83
2023/03/27 18:12:46;;;;;;;20.95;10.57;;;;;;;11.12;78.49;99041.69;4946773;29;20039;-87
2023/03/27 18:15:12;;;;;;;24.13;9.18;;;;;;;11.46;77.96;99080.22;4946039;29;20122;-87
2023/03/27 18:17:38;;;;;;;19.08;9.00;;;;;;;11.42;77.06;99060.13;4916615;29;20070;-87
2023/03/27 18:20:11;;;;;;;17.92;8.95;;;;;;;11.54;76.67;99055.81;4940180;28;20074;-87
2023/03/27 18:22:39;;;;;;;19.67;9.52;;;;;;;11.64;76.36;99043.81;4948942;28;20046;-87
2023/03/27 18:25:09;;;;;;;21.08;9.50;;;;;;;11.63;76.15;99024.09;4931093;29;20039;-88
2023/03/27 18:27:43;;;;;;;20.83;10.02;;;;;;;11.89;76.24;99063.69;4947321;28;20048;-87
2023/03/27 18:30:13;;;;;;;22.42;9.98;;;;;;;11.86;75.47;99053.28;4920977;29;20043;-87
2023/03/27 18:32:40;;;;;;;22.85;10.90;;;;;;;11.77;75.79;99035.69;4935040;29;20043;-87
2023/03/27 18:35:06;;;;;;;34.35;14.20;;;;;;;11.95;75.25;99041.31;4913654;29;20124;-86
2023/03/27 18:37:33;;;;;;;29.02;11.95;;;;;;;12.11;74.78;99047.31;4909792;29;20047;-88
2023/03/27 18:40:00;;;;;;;26.10;12.93;;;;;;;12.00;74.95;99013.75;4953532;28;20448;-87
2023/03/27 18:42:26;;;;;;;27.20;13.70;;;;;;;12.04;74.86;99007.72;4960386;28;20058;-87
2023/03/27 18:44:53;;;;;;;28.65;13.85;;;;;;;12.24;75.06;99044.56;4930861;28;20435;-87
2023/03/27 18:47:19;;;;;;;27.60;14.10;;;;;;;12.02;74.82;98999.03;4927277;29;20059;-87
2023/03/27 18:49:45;;;;;;;26.63;14.38;;;;;;;12.21;74.79;99016.19;4952918;28;20047;-87
2023/03/27 18:52:14;;;;;;;29.45;15.40;;;;;;;12.28;75.06;99028.81;4954234;29;20040;-87
2023/03/27 18:54:42;;;;;;;37.22;21.08;;;;;;;12.04;75.81;99006.91;4928487;29;20043;-88
2023/03/27 18:57:10;;;;;;;39.40;23.30;;;;;;;11.95;76.39;98995.53;4926743;29;20050;-87
2023/03/27 18:59:38;;;;;;;23.80;13.27;;;;;;;11.87;77.19;98994.88;4926352;29;20060;-87
2023/03/27 19:02:08;;;;;;;18.45;10.75;;;;;;;11.88;77.56;99010.03;4938736;29;20035;-86
2023/03/27 19:04:33;;;;;;;13.65;7.65;;;;;;;11.67;77.69;98978.78;4932642;29;20126;-87
2023/03/27 19:07:01;;;;;;;11.60;7.15;;;;;;;11.67;78.17;98993.06;4932403;29;20039;-87
2023/03/27 19:09:29;;;;;;;10.32;6.38;;;;;;;11.80;77.50;99000.31;4918548;29;20052;-87